sensor_id;sensor_type;location;lat;lon;timestamp;pressure;altitude;pressure_sealevel;temperature;humidity
75513;BME280;64090;49.770;18.760;2023-02-10T00:04:14;99333.62;;;-4.24;67.61
75513;BME280;64090;49.770;18.760;2023-02-10T00:07:17;99336.35;;;-4.24;67.78
75513;BME280;64090;49.770;18.760;2023-02-10T00:10:20;99334.41;;;-4.23;67.78
75513;BME280;64090;49.770;18.760;2023-02-10T00:13:24;99337.16;;;-4.22;68.07
75513;BME280;64090;49.770;18.760;2023-02-10T00:16:27;99342.80;;;-4.21;68.12
75513;BME280;64090;49.770;18.760;2023-02-10T00:19:30;99343.27;;;-4.20;67.97
75513;BME280;64090;49.770;18.760;2023-02-10T00:22:36;99339.66;;;-4.21;68.14
75513;BME280;64090;49.770;18.760;2023-02-10T00:25:39;99333.60;;;-4.24;67.87
75513;BME280;64090;49.770;18.760;2023-02-10T00:28:41;99334.09;;;-4.27;68.16
75513;BME280;64090;49.770;18.760;2023-02-10T00:31:45;99341.03;;;-4.31;68.05
75513;BME280;64090;49.770;18.760;2023-02-10T00:34:48;99339.89;;;-4.37;68.21
75513;BME280;64090;49.770;18.760;2023-02-10T00:37:51;99333.61;;;-4.39;68.40
75513;BME280;64090;49.770;18.760;2023-02-10T00:40:54;99337.55;;;-4.39;68.52
75513;BME280;64090;49.770;18.760;2023-02-10T00:43:56;99330.73;;;-4.37;68.87
75513;BME280;64090;49.770;18.760;2023-02-10T00:46:59;99326.85;;;-4.35;69.11
75513;BME280;64090;49.770;18.760;2023-02-10T00:50:03;99320.86;;;-4.32;69.31
75513;BME280;64090;49.770;18.760;2023-02-10T00:53:06;99315.41;;;-4.30;69.43
75513;BME280;64090;49.770;18.760;2023-02-10T00:56:10;99313.70;;;-4.28;69.54
75513;BME280;64090;49.770;18.760;2023-02-10T00:59:13;99305.90;;;-4.27;69.76
75513;BME280;64090;49.770;18.760;2023-02-10T01:02:16;99296.52;;;-4.23;69.75
75513;BME280;64090;49.770;18.760;2023-02-10T01:05:19;99283.40;;;-4.20;69.76
75513;BME280;64090;49.770;18.760;2023-02-10T01:08:22;99276.27;;;-4.16;69.61
75513;BME280;64090;49.770;18.760;2023-02-10T01:11:25;99274.30;;;-4.15;69.53
75513;BME280;64090;49.770;18.760;2023-02-10T01:14:28;99267.35;;;-4.14;69.34
75513;BME280;64090;49.770;18.760;2023-02-10T01:17:31;99259.33;;;-4.12;69.55
75513;BME280;64090;49.770;18.760;2023-02-10T01:20:37;99242.16;;;-4.09;69.39
75513;BME280;64090;49.770;18.760;2023-02-10T01:23:40;99225.75;;;-4.05;69.25
75513;BME280;64090;49.770;18.760;2023-02-10T01:26:43;99230.02;;;-4.04;69.33
75513;BME280;64090;49.770;18.760;2023-02-10T01:29:46;99244.19;;;-4.04;69.04
75513;BME280;64090;49.770;18.760;2023-02-10T01:32:53;99248.73;;;-4.05;69.01
75513;BME280;64090;49.770;18.760;2023-02-10T01:35:56;99243.16;;;-4.04;68.96
75513;BME280;64090;49.770;18.760;2023-02-10T01:38:59;99244.25;;;-4.05;68.81
75513;BME280;64090;49.770;18.760;2023-02-10T01:42:02;99251.67;;;-4.05;68.88
75513;BME280;64090;49.770;18.760;2023-02-10T01:45:16;99260.58;;;-4.06;68.75
75513;BME280;64090;49.770;18.760;2023-02-10T01:48:20;99266.27;;;-4.09;68.64
75513;BME280;64090;49.770;18.760;2023-02-10T01:51:31;99259.88;;;-4.14;68.60
75513;BME280;64090;49.770;18.760;2023-02-10T01:54:44;99248.83;;;-4.10;68.40
75513;BME280;64090;49.770;18.760;2023-02-10T01:57:48;99255.73;;;-4.06;68.35
75513;BME280;64090;49.770;18.760;2023-02-10T02:00:56;99259.17;;;-4.06;68.15
75513;BME280;64090;49.770;18.760;2023-02-10T02:04:02;99258.38;;;-4.04;67.90
75513;BME280;64090;49.770;18.760;2023-02-10T02:07:05;99255.35;;;-4.02;67.60
75513;BME280;64090;49.770;18.760;2023-02-10T02:10:08;99254.55;;;-4.00;67.62
75513;BME280;64090;49.770;18.760;2023-02-10T02:16:52;99249.04;;;-4.00;67.32
75513;BME280;64090;49.770;18.760;2023-02-10T02:23:48;99246.48;;;-3.95;67.19
75513;BME280;64090;49.770;18.760;2023-02-10T02:30:55;99250.80;;;-4.01;67.00
75513;BME280;64090;49.770;18.760;2023-02-10T02:34:07;99260.04;;;-4.02;67.23
75513;BME280;64090;49.770;18.760;2023-02-10T02:37:22;99257.59;;;-4.06;67.44
75513;BME280;64090;49.770;18.760;2023-02-10T02:40:26;99253.50;;;-4.10;67.59
75513;BME280;64090;49.770;18.760;2023-02-10T02:43:29;99249.95;;;-4.16;67.90
75513;BME280;64090;49.770;18.760;2023-02-10T02:50:01;99259.42;;;-4.25;67.88
75513;BME280;64090;49.770;18.760;2023-02-10T02:56:45;99266.84;;;-4.39;68.28
75513;BME280;64090;49.770;18.760;2023-02-10T03:00:03;99270.18;;;-4.41;68.32
75513;BME280;64090;49.770;18.760;2023-02-10T03:03:08;99263.55;;;-4.40;68.19
75513;BME280;64090;49.770;18.760;2023-02-10T03:06:11;99263.63;;;-4.38;68.49
75513;BME280;64090;49.770;18.760;2023-02-10T03:09:15;99263.67;;;-4.34;68.14
75513;BME280;64090;49.770;18.760;2023-02-10T03:12:18;99258.91;;;-4.32;68.23
75513;BME280;64090;49.770;18.760;2023-02-10T03:15:21;99253.33;;;-4.35;68.34
75513;BME280;64090;49.770;18.760;2023-02-10T03:18:25;99251.21;;;-4.38;68.36
75513;BME280;64090;49.770;18.760;2023-02-10T03:21:28;99248.41;;;-4.38;68.46
75513;BME280;64090;49.770;18.760;2023-02-10T03:24:31;99251.45;;;-4.32;68.43
75513;BME280;64090;49.770;18.760;2023-02-10T03:27:34;99256.98;;;-4.25;68.22
75513;BME280;64090;49.770;18.760;2023-02-10T03:30:38;99263.02;;;-4.21;68.15
75513;BME280;64090;49.770;18.760;2023-02-10T03:33:40;99269.52;;;-4.19;68.18
75513;BME280;64090;49.770;18.760;2023-02-10T03:36:43;99270.83;;;-4.21;68.39
75513;BME280;64090;49.770;18.760;2023-02-10T03:39:46;99276.41;;;-4.26;68.56
75513;BME280;64090;49.770;18.760;2023-02-10T03:42:49;99268.64;;;-4.30;68.60
75513;BME280;64090;49.770;18.760;2023-02-10T03:45:52;99269.08;;;-4.32;68.69
75513;BME280;64090;49.770;18.760;2023-02-10T03:48:55;99266.00;;;-4.36;68.71
75513;BME280;64090;49.770;18.760;2023-02-10T03:51:59;99253.41;;;-4.41;68.96
75513;BME280;64090;49.770;18.760;2023-02-10T03:55:02;99242.67;;;-4.48;68.99
75513;BME280;64090;49.770;18.760;2023-02-10T03:58:05;99247.48;;;-4.54;69.01
75513;BME280;64090;49.770;18.760;2023-02-10T04:01:10;99252.06;;;-4.63;69.20
75513;BME280;64090;49.770;18.760;2023-02-10T04:04:14;99260.48;;;-4.73;69.17
75513;BME280;64090;49.770;18.760;2023-02-10T04:07:16;99260.29;;;-4.81;69.17
75513;BME280;64090;49.770;18.760;2023-02-10T04:10:20;99266.76;;;-4.90;69.51
75513;BME280;64090;49.770;18.760;2023-02-10T04:13:23;99266.54;;;-4.96;69.52
75513;BME280;64090;49.770;18.760;2023-02-10T04:16:26;99265.66;;;-5.00;69.49
75513;BME280;64090;49.770;18.760;2023-02-10T04:19:30;99269.48;;;-5.08;69.40
75513;BME280;64090;49.770;18.760;2023-02-10T04:22:33;99262.09;;;-5.16;69.55
75513;BME280;64090;49.770;18.760;2023-02-10T04:25:36;99258.34;;;-5.21;70.02
75513;BME280;64090;49.770;18.760;2023-02-10T04:28:39;99255.39;;;-5.25;69.62
75513;BME280;64090;49.770;18.760;2023-02-10T04:31:42;99256.99;;;-5.34;69.85
75513;BME280;64090;49.770;18.760;2023-02-10T04:34:45;99262.54;;;-5.42;69.96
75513;BME280;64090;49.770;18.760;2023-02-10T04:37:48;99272.51;;;-5.45;70.28
75513;BME280;64090;49.770;18.760;2023-02-10T04:40:51;99273.83;;;-5.52;70.09
75513;BME280;64090;49.770;18.760;2023-02-10T04:43:54;99274.90;;;-5.56;70.65
75513;BME280;64090;49.770;18.760;2023-02-10T04:46:57;99281.79;;;-5.60;70.57
75513;BME280;64090;49.770;18.760;2023-02-10T04:50:01;99284.16;;;-5.63;71.01
75513;BME280;64090;49.770;18.760;2023-02-10T04:53:05;99287.17;;;-5.65;70.97
75513;BME280;64090;49.770;18.760;2023-02-10T04:56:08;99288.23;;;-5.66;71.08
75513;BME280;64090;49.770;18.760;2023-02-10T04:59:11;99290.04;;;-5.68;71.37
75513;BME280;64090;49.770;18.760;2023-02-10T05:02:15;99290.48;;;-5.65;71.59
75513;BME280;64090;49.770;18.760;2023-02-10T05:05:18;99293.44;;;-5.62;71.91
75513;BME280;64090;49.770;18.760;2023-02-10T05:08:21;99292.70;;;-5.61;71.60
75513;BME280;64090;49.770;18.760;2023-02-10T05:11:26;99303.70;;;-5.64;71.34
75513;BME280;64090;49.770;18.760;2023-02-10T05:14:29;99306.66;;;-5.69;71.65
75513;BME280;64090;49.770;18.760;2023-02-10T05:17:32;99308.67;;;-5.76;71.51
75513;BME280;64090;49.770;18.760;2023-02-10T05:20:35;99303.30;;;-5.83;71.50
75513;BME280;64090;49.770;18.760;2023-02-10T05:23:39;99304.75;;;-5.89;71.61
75513;BME280;64090;49.770;18.760;2023-02-10T05:26:42;99305.55;;;-5.99;71.31
75513;BME280;64090;49.770;18.760;2023-02-10T05:29:46;99315.33;;;-6.11;71.36
75513;BME280;64090;49.770;18.760;2023-02-10T05:32:49;99328.50;;;-6.21;71.57
75513;BME280;64090;49.770;18.760;2023-02-10T05:35:51;99335.08;;;-6.30;71.78
75513;BME280;64090;49.770;18.760;2023-02-10T05:38:54;99341.45;;;-6.40;71.66
75513;BME280;64090;49.770;18.760;2023-02-10T05:42:16;99342.39;;;-6.50;72.03
75513;BME280;64090;49.770;18.760;2023-02-10T05:45:19;99340.77;;;-6.58;71.99
75513;BME280;64090;49.770;18.760;2023-02-10T05:48:22;99341.66;;;-6.58;72.15
75513;BME280;64090;49.770;18.760;2023-02-10T05:51:25;99339.77;;;-6.59;72.06
75513;BME280;64090;49.770;18.760;2023-02-10T05:54:29;99346.34;;;-6.59;72.13
75513;BME280;64090;49.770;18.760;2023-02-10T05:57:32;99355.10;;;-6.63;71.85
75513;BME280;64090;49.770;18.760;2023-02-10T06:00:36;99356.45;;;-6.67;72.31
75513;BME280;64090;49.770;18.760;2023-02-10T06:03:39;99360.91;;;-6.71;72.21
75513;BME280;64090;49.770;18.760;2023-02-10T06:06:41;99366.34;;;-6.73;71.85
75513;BME280;64090;49.770;18.760;2023-02-10T06:09:45;99374.50;;;-6.75;72.33
75513;BME280;64090;49.770;18.760;2023-02-10T06:12:49;99375.23;;;-6.76;72.38
75513;BME280;64090;49.770;18.760;2023-02-10T06:15:52;99376.94;;;-6.76;72.35
75513;BME280;64090;49.770;18.760;2023-02-10T06:18:55;99382.30;;;-6.76;72.43
75513;BME280;64090;49.770;18.760;2023-02-10T06:21:58;99380.48;;;-6.78;71.90
75513;BME280;64090;49.770;18.760;2023-02-10T06:25:01;99381.55;;;-6.79;71.70
75513;BME280;64090;49.770;18.760;2023-02-10T06:28:04;99378.71;;;-6.82;71.93
75513;BME280;64090;49.770;18.760;2023-02-10T06:31:07;99377.20;;;-6.83;71.65
75513;BME280;64090;49.770;18.760;2023-02-10T06:34:11;99374.08;;;-6.82;71.82
75513;BME280;64090;49.770;18.760;2023-02-10T06:37:14;99373.58;;;-6.78;71.89
75513;BME280;64090;49.770;18.760;2023-02-10T06:40:18;99372.59;;;-6.70;71.97
75513;BME280;64090;49.770;18.760;2023-02-10T06:43:20;99371.13;;;-6.58;71.87
75513;BME280;64090;49.770;18.760;2023-02-10T06:46:24;99378.46;;;-6.42;72.11
75513;BME280;64090;49.770;18.760;2023-02-10T06:49:27;99380.61;;;-6.26;72.05
75513;BME280;64090;49.770;18.760;2023-02-10T06:52:30;99380.84;;;-6.06;72.09
75513;BME280;64090;49.770;18.760;2023-02-10T06:55:34;99385.18;;;-5.85;72.02
75513;BME280;64090;49.770;18.760;2023-02-10T06:58:37;99385.17;;;-5.64;71.83
75513;BME280;64090;49.770;18.760;2023-02-10T07:01:40;99391.50;;;-5.41;71.62
75513;BME280;64090;49.770;18.760;2023-02-10T07:04:44;99392.98;;;-5.18;71.37
75513;BME280;64090;49.770;18.760;2023-02-10T07:07:47;99390.25;;;-4.95;71.34
75513;BME280;64090;49.770;18.760;2023-02-10T07:10:50;99391.34;;;-4.72;71.17
75513;BME280;64090;49.770;18.760;2023-02-10T07:13:53;99390.26;;;-4.48;70.87
75513;BME280;64090;49.770;18.760;2023-02-10T07:16:55;99392.04;;;-4.23;70.72
75513;BME280;64090;49.770;18.760;2023-02-10T07:19:58;99395.27;;;-3.96;70.59
75513;BME280;64090;49.770;18.760;2023-02-10T07:23:03;99396.88;;;-3.75;69.60
75513;BME280;64090;49.770;18.760;2023-02-10T07:26:06;99394.98;;;-3.54;69.74
75513;BME280;64090;49.770;18.760;2023-02-10T07:29:09;99395.36;;;-3.30;69.41
75513;BME280;64090;49.770;18.760;2023-02-10T07:32:12;99404.58;;;-3.17;68.21
75513;BME280;64090;49.770;18.760;2023-02-10T07:35:15;99408.48;;;-3.08;67.72
75513;BME280;64090;49.770;18.760;2023-02-10T07:38:18;99416.31;;;-2.95;68.10
75513;BME280;64090;49.770;18.760;2023-02-10T07:41:21;99417.79;;;-2.69;68.33
75513;BME280;64090;49.770;18.760;2023-02-10T07:44:24;99415.11;;;-2.42;68.23
75513;BME280;64090;49.770;18.760;2023-02-10T07:47:27;99415.67;;;-2.13;67.77
75513;BME280;64090;49.770;18.760;2023-02-10T07:50:30;99413.05;;;-1.90;67.99
75513;BME280;64090;49.770;18.760;2023-02-10T07:53:36;99415.83;;;-1.66;67.83
75513;BME280;64090;49.770;18.760;2023-02-10T07:56:40;99412.95;;;-1.49;67.08
75513;BME280;64090;49.770;18.760;2023-02-10T07:59:43;99410.10;;;-1.38;65.97
75513;BME280;64090;49.770;18.760;2023-02-10T08:02:46;99410.05;;;-1.22;66.63
75513;BME280;64090;49.770;18.760;2023-02-10T08:05:49;99414.42;;;-1.05;66.58
75513;BME280;64090;49.770;18.760;2023-02-10T08:08:52;99418.58;;;-0.81;66.11
75513;BME280;64090;49.770;18.760;2023-02-10T08:11:55;99417.23;;;-0.61;65.80
75513;BME280;64090;49.770;18.760;2023-02-10T08:14:58;99410.83;;;-0.48;65.69
75513;BME280;64090;49.770;18.760;2023-02-10T08:18:02;99410.10;;;-0.38;64.54
75513;BME280;64090;49.770;18.760;2023-02-10T08:21:05;99406.84;;;-0.39;64.22
75513;BME280;64090;49.770;18.760;2023-02-10T08:24:08;99409.96;;;-0.31;63.12
75513;BME280;64090;49.770;18.760;2023-02-10T08:27:12;99419.39;;;-0.17;64.03
75513;BME280;64090;49.770;18.760;2023-02-10T08:30:15;99423.52;;;-0.02;64.33
75513;BME280;64090;49.770;18.760;2023-02-10T08:33:18;99426.41;;;0.10;64.21
75513;BME280;64090;49.770;18.760;2023-02-10T08:36:21;99425.86;;;0.22;63.49
75513;BME280;64090;49.770;18.760;2023-02-10T08:39:24;99429.86;;;0.38;63.19
75513;BME280;64090;49.770;18.760;2023-02-10T08:42:27;99426.36;;;0.57;63.60
75513;BME280;64090;49.770;18.760;2023-02-10T08:45:30;99422.69;;;0.79;63.35
75513;BME280;64090;49.770;18.760;2023-02-10T08:48:33;99423.20;;;1.00;61.81
75513;BME280;64090;49.770;18.760;2023-02-10T08:51:36;99429.83;;;1.18;61.98
75513;BME280;64090;49.770;18.760;2023-02-10T08:54:42;99434.59;;;1.33;59.53
75513;BME280;64090;49.770;18.760;2023-02-10T08:57:44;99435.39;;;1.29;57.61
75513;BME280;64090;49.770;18.760;2023-02-10T09:00:47;99434.62;;;1.38;60.80
75513;BME280;64090;49.770;18.760;2023-02-10T09:03:51;99440.56;;;1.43;59.12
75513;BME280;64090;49.770;18.760;2023-02-10T09:06:54;99442.89;;;1.47;58.12
75513;BME280;64090;49.770;18.760;2023-02-10T09:09:57;99439.73;;;1.52;58.87
75513;BME280;64090;49.770;18.760;2023-02-10T09:13:00;99435.56;;;1.57;57.30
75513;BME280;64090;49.770;18.760;2023-02-10T09:16:03;99433.48;;;1.64;58.54
75513;BME280;64090;49.770;18.760;2023-02-10T09:19:06;99440.27;;;1.70;58.59
75513;BME280;64090;49.770;18.760;2023-02-10T09:22:09;99439.77;;;1.67;57.53
75513;BME280;64090;49.770;18.760;2023-02-10T09:25:12;99437.92;;;1.73;59.69
75513;BME280;64090;49.770;18.760;2023-02-10T09:28:15;99431.77;;;1.77;57.47
75513;BME280;64090;49.770;18.760;2023-02-10T09:31:18;99434.31;;;1.83;58.94
75513;BME280;64090;49.770;18.760;2023-02-10T09:34:21;99435.36;;;1.90;57.88
75513;BME280;64090;49.770;18.760;2023-02-10T09:37:24;99436.49;;;1.96;58.55
75513;BME280;64090;49.770;18.760;2023-02-10T09:40:30;99436.05;;;2.10;57.67
75513;BME280;64090;49.770;18.760;2023-02-10T09:43:58;99435.62;;;2.19;57.85
75513;BME280;64090;49.770;18.760;2023-02-10T09:50:34;99441.95;;;2.26;55.89
75513;BME280;64090;49.770;18.760;2023-02-10T09:53:43;99444.21;;;2.35;57.25
75513;BME280;64090;49.770;18.760;2023-02-10T09:56:46;99445.23;;;2.38;55.81
75513;BME280;64090;49.770;18.760;2023-02-10T09:59:51;99450.73;;;2.47;57.10
75513;BME280;64090;49.770;18.760;2023-02-10T10:02:57;99458.50;;;2.51;56.44
75513;BME280;64090;49.770;18.760;2023-02-10T10:09:35;99443.71;;;2.54;55.31
75513;BME280;64090;49.770;18.760;2023-02-10T10:12:41;99439.62;;;2.65;56.82
75513;BME280;64090;49.770;18.760;2023-02-10T10:26:23;99426.55;;;2.86;54.51
75513;BME280;64090;49.770;18.760;2023-02-10T10:32:58;99424.77;;;3.12;54.24
75513;BME280;64090;49.770;18.760;2023-02-10T10:36:02;99419.15;;;3.39;55.29
75513;BME280;64090;49.770;18.760;2023-02-10T10:42:37;99419.63;;;3.81;53.45
75513;BME280;64090;49.770;18.760;2023-02-10T10:45:50;99419.83;;;4.12;53.32
75513;BME280;64090;49.770;18.760;2023-02-10T10:48:56;99428.49;;;4.40;52.78
75513;BME280;64090;49.770;18.760;2023-02-10T10:51:59;99423.20;;;4.59;52.47
75513;BME280;64090;49.770;18.760;2023-02-10T10:55:08;99426.63;;;4.67;51.14
75513;BME280;64090;49.770;18.760;2023-02-10T10:58:38;99422.38;;;4.88;52.27
75513;BME280;64090;49.770;18.760;2023-02-10T11:01:44;99411.08;;;5.04;50.79
75513;BME280;64090;49.770;18.760;2023-02-10T11:05:12;99405.98;;;5.14;51.69
75513;BME280;64090;49.770;18.760;2023-02-10T11:08:29;99403.08;;;4.90;49.94
75513;BME280;64090;49.770;18.760;2023-02-10T11:11:40;99408.53;;;4.95;50.41
75513;BME280;64090;49.770;18.760;2023-02-10T11:14:44;99403.77;;;4.97;51.73
75513;BME280;64090;49.770;18.760;2023-02-10T11:17:48;99406.51;;;5.02;50.82
75513;BME280;64090;49.770;18.760;2023-02-10T11:21:03;99399.96;;;5.09;50.90
75513;BME280;64090;49.770;18.760;2023-02-10T11:24:25;99397.79;;;5.03;50.06
75513;BME280;64090;49.770;18.760;2023-02-10T11:27:28;99389.54;;;5.05;51.61
75513;BME280;64090;49.770;18.760;2023-02-10T11:30:38;99385.52;;;5.13;50.95
75513;BME280;64090;49.770;18.760;2023-02-10T11:33:41;99388.31;;;5.26;51.27
75513;BME280;64090;49.770;18.760;2023-02-10T11:36:44;99384.65;;;5.44;51.93
75513;BME280;64090;49.770;18.760;2023-02-10T11:39:47;99378.02;;;5.52;50.83
75513;BME280;64090;49.770;18.760;2023-02-10T11:42:53;99371.96;;;5.71;51.31
75513;BME280;64090;49.770;18.760;2023-02-10T11:46:02;99373.95;;;5.75;50.34
75513;BME280;64090;49.770;18.760;2023-02-10T11:49:17;99375.11;;;5.73;50.50
75513;BME280;64090;49.770;18.760;2023-02-10T11:52:23;99376.48;;;5.82;51.46
75513;BME280;64090;49.770;18.760;2023-02-10T11:55:51;99373.89;;;5.79;51.17
75513;BME280;64090;49.770;18.760;2023-02-10T11:59:11;99362.07;;;5.45;50.38
75513;BME280;64090;49.770;18.760;2023-02-10T12:06:02;99362.54;;;5.05;51.73
75513;BME280;64090;49.770;18.760;2023-02-10T12:09:19;99364.64;;;4.90;51.72
75513;BME280;64090;49.770;18.760;2023-02-10T12:12:40;99363.80;;;5.02;52.58
75513;BME280;64090;49.770;18.760;2023-02-10T12:15:56;99355.61;;;5.01;52.16
75513;BME280;64090;49.770;18.760;2023-02-10T12:19:12;99360.30;;;4.94;51.93
75513;BME280;64090;49.770;18.760;2023-02-10T12:22:32;99365.42;;;4.95;52.03
75513;BME280;64090;49.770;18.760;2023-02-10T12:29:07;99358.16;;;4.92;52.44
75513;BME280;64090;49.770;18.760;2023-02-10T12:32:21;99365.86;;;4.82;52.22
75513;BME280;64090;49.770;18.760;2023-02-10T12:35:35;99371.73;;;4.60;52.00
75513;BME280;64090;49.770;18.760;2023-02-10T12:38:56;99366.02;;;4.43;51.87
75513;BME280;64090;49.770;18.760;2023-02-10T12:42:10;99364.06;;;4.09;52.24
75513;BME280;64090;49.770;18.760;2023-02-10T12:45:42;99370.20;;;3.85;52.66
75513;BME280;64090;49.770;18.760;2023-02-10T12:49:09;99372.64;;;3.65;52.58
75513;BME280;64090;49.770;18.760;2023-02-10T12:52:29;99370.50;;;3.72;53.06
75513;BME280;64090;49.770;18.760;2023-02-10T12:55:51;99374.84;;;3.90;53.12
75513;BME280;64090;49.770;18.760;2023-02-10T12:59:01;99374.27;;;3.76;52.64
75513;BME280;64090;49.770;18.760;2023-02-10T13:05:42;99374.95;;;3.53;53.23
75513;BME280;64090;49.770;18.760;2023-02-10T13:08:50;99374.70;;;3.32;53.06
75513;BME280;64090;49.770;18.760;2023-02-10T13:12:07;99381.48;;;3.07;53.46
75513;BME280;64090;49.770;18.760;2023-02-10T13:18:25;99384.86;;;2.72;54.36
75513;BME280;64090;49.770;18.760;2023-02-10T13:21:49;99391.20;;;2.64;54.77
75513;BME280;64090;49.770;18.760;2023-02-10T13:25:14;99393.02;;;2.64;55.43
75513;BME280;64090;49.770;18.760;2023-02-10T13:32:21;99388.52;;;2.58;56.69
75513;BME280;64090;49.770;18.760;2023-02-10T13:35:30;99391.97;;;2.49;57.02
75513;BME280;64090;49.770;18.760;2023-02-10T13:38:35;99394.62;;;2.44;56.87
75513;BME280;64090;49.770;18.760;2023-02-10T13:41:39;99402.80;;;2.49;57.14
75513;BME280;64090;49.770;18.760;2023-02-10T13:44:44;99391.31;;;2.60;57.11
75513;BME280;64090;49.770;18.760;2023-02-10T13:47:53;99392.61;;;2.71;57.36
75513;BME280;64090;49.770;18.760;2023-02-10T13:51:05;99397.23;;;2.82;57.09
75513;BME280;64090;49.770;18.760;2023-02-10T13:54:28;99400.41;;;2.89;57.04
75513;BME280;64090;49.770;18.760;2023-02-10T13:57:33;99407.42;;;2.93;56.85
75513;BME280;64090;49.770;18.760;2023-02-10T14:00:49;99413.55;;;2.91;56.80
75513;BME280;64090;49.770;18.760;2023-02-10T14:03:55;99409.50;;;2.84;57.04
75513;BME280;64090;49.770;18.760;2023-02-10T14:06:57;99402.63;;;2.78;57.02
75513;BME280;64090;49.770;18.760;2023-02-10T14:13:31;99401.05;;;2.71;57.23
75513;BME280;64090;49.770;18.760;2023-02-10T14:16:40;99411.03;;;2.71;57.33
75513;BME280;64090;49.770;18.760;2023-02-10T14:19:45;99412.59;;;2.69;57.36
75513;BME280;64090;49.770;18.760;2023-02-10T14:22:50;99411.54;;;2.71;57.42
75513;BME280;64090;49.770;18.760;2023-02-10T14:25:59;99415.14;;;2.84;57.51
75513;BME280;64090;49.770;18.760;2023-02-10T14:29:03;99407.38;;;2.92;57.33
75513;BME280;64090;49.770;18.760;2023-02-10T14:32:13;99409.19;;;2.91;57.57
75513;BME280;64090;49.770;18.760;2023-02-10T14:35:20;99417.23;;;2.95;57.77
75513;BME280;64090;49.770;18.760;2023-02-10T14:38:32;99419.45;;;2.96;57.60
75513;BME280;64090;49.770;18.760;2023-02-10T14:41:38;99415.36;;;2.93;57.78
75513;BME280;64090;49.770;18.760;2023-02-10T14:44:48;99417.30;;;2.83;57.78
75513;BME280;64090;49.770;18.760;2023-02-10T14:47:55;99417.45;;;2.67;58.10
75513;BME280;64090;49.770;18.760;2023-02-10T14:51:05;99415.66;;;2.43;58.32
75513;BME280;64090;49.770;18.760;2023-02-10T14:54:24;99413.59;;;2.23;58.75
75513;BME280;64090;49.770;18.760;2023-02-10T14:57:28;99412.89;;;1.99;59.11
75513;BME280;64090;49.770;18.760;2023-02-10T15:00:34;99420.44;;;1.81;59.07
75513;BME280;64090;49.770;18.760;2023-02-10T15:03:39;99424.39;;;1.67;59.31
75513;BME280;64090;49.770;18.760;2023-02-10T15:06:46;99424.46;;;1.51;59.51
75513;BME280;64090;49.770;18.760;2023-02-10T15:09:50;99422.15;;;1.36;59.19
75513;BME280;64090;49.770;18.760;2023-02-10T15:12:55;99423.14;;;1.19;59.70
75513;BME280;64090;49.770;18.760;2023-02-10T15:15:59;99428.08;;;1.03;59.74
75513;BME280;64090;49.770;18.760;2023-02-10T15:19:02;99428.16;;;0.86;59.71
75513;BME280;64090;49.770;18.760;2023-02-10T15:22:31;99422.85;;;0.66;60.11
75513;BME280;64090;49.770;18.760;2023-02-10T15:25:35;99426.40;;;0.40;60.29
75513;BME280;64090;49.770;18.760;2023-02-10T15:28:41;99423.64;;;0.18;60.68
75513;BME280;64090;49.770;18.760;2023-02-10T15:31:58;99425.13;;;-0.03;60.60
75513;BME280;64090;49.770;18.760;2023-02-10T15:35:06;99420.52;;;-0.24;61.12
75513;BME280;64090;49.770;18.760;2023-02-10T15:38:10;99425.02;;;-0.44;61.18
75513;BME280;64090;49.770;18.760;2023-02-10T15:44:43;99436.81;;;-0.83;61.59
75513;BME280;64090;49.770;18.760;2023-02-10T15:48:08;99436.93;;;-1.03;61.70
75513;BME280;64090;49.770;18.760;2023-02-10T15:52:11;99444.58;;;-1.24;61.73
75513;BME280;64090;49.770;18.760;2023-02-10T15:55:15;99447.62;;;-1.44;61.95
75513;BME280;64090;49.770;18.760;2023-02-10T15:58:19;99445.40;;;-1.57;63.72
75513;BME280;64090;49.770;18.760;2023-02-10T16:01:22;99449.30;;;-1.67;64.50
75513;BME280;64090;49.770;18.760;2023-02-10T16:04:26;99455.68;;;-1.76;64.41
75513;BME280;64090;49.770;18.760;2023-02-10T16:07:31;99457.02;;;-1.84;64.11
75513;BME280;64090;49.770;18.760;2023-02-10T16:10:34;99460.02;;;-1.95;63.76
75513;BME280;64090;49.770;18.760;2023-02-10T16:13:38;99467.46;;;-2.04;63.91
75513;BME280;64090;49.770;18.760;2023-02-10T16:16:45;99470.63;;;-2.15;63.85
75513;BME280;64090;49.770;18.760;2023-02-10T16:19:50;99470.15;;;-2.25;64.41
75513;BME280;64090;49.770;18.760;2023-02-10T16:22:54;99477.63;;;-2.36;64.11
75513;BME280;64090;49.770;18.760;2023-02-10T16:25:57;99482.22;;;-2.44;64.59
75513;BME280;64090;49.770;18.760;2023-02-10T16:29:01;99485.66;;;-2.40;66.78
75513;BME280;64090;49.770;18.760;2023-02-10T16:32:05;99489.09;;;-2.26;68.28
75513;BME280;64090;49.770;18.760;2023-02-10T16:35:08;99491.56;;;-2.13;67.98
75513;BME280;64090;49.770;18.760;2023-02-10T16:38:11;99488.36;;;-2.02;68.49
75513;BME280;64090;49.770;18.760;2023-02-10T16:41:21;99488.00;;;-1.99;67.18
75513;BME280;64090;49.770;18.760;2023-02-10T16:44:26;99489.63;;;-2.00;66.57
75513;BME280;64090;49.770;18.760;2023-02-10T16:47:30;99486.12;;;-2.06;66.23
75513;BME280;64090;49.770;18.760;2023-02-10T16:50:37;99487.46;;;-2.14;66.02
75513;BME280;64090;49.770;18.760;2023-02-10T16:53:41;99491.98;;;-2.28;66.33
75513;BME280;64090;49.770;18.760;2023-02-10T16:56:44;99491.96;;;-2.41;65.78
75513;BME280;64090;49.770;18.760;2023-02-10T16:59:48;99493.65;;;-2.53;66.01
75513;BME280;64090;49.770;18.760;2023-02-10T17:02:55;99490.94;;;-2.65;66.01
75513;BME280;64090;49.770;18.760;2023-02-10T17:05:58;99490.23;;;-2.75;67.06
75513;BME280;64090;49.770;18.760;2023-02-10T17:09:02;99495.42;;;-2.85;66.56
75513;BME280;64090;49.770;18.760;2023-02-10T17:12:05;99498.45;;;-2.94;66.33
75513;BME280;64090;49.770;18.760;2023-02-10T17:15:09;99500.59;;;-2.98;66.51
75513;BME280;64090;49.770;18.760;2023-02-10T17:18:13;99500.71;;;-3.00;67.74
75513;BME280;64090;49.770;18.760;2023-02-10T17:21:16;99501.42;;;-3.01;68.67
75513;BME280;64090;49.770;18.760;2023-02-10T17:24:19;99499.96;;;-2.99;68.56
75513;BME280;64090;49.770;18.760;2023-02-10T17:27:22;99499.46;;;-2.96;68.47